Rigaud, Canada
Current Conditions -  °F | °C
As of 11:00 AM on Thursday 23 Oct 2014 (Local Time) from CYMX Reporting Station
Overcast Overcast  
Wind Chill: 43°   Ceiling: 2400
Heat Index: 48°   Visibility: 25mi
Dew Point: 36°   Wind: 13mph
Humidity: 62%   Direction: 50°NE
Pressure: 30.07"   Gusts: 22mph
Location:  45.47°N, 74.3°W
Report Text: CYMX 231500Z 05011G19KT 360V090 25SM BKN024 OVC031 09/02 A3007 RMK SC5SC3 PRESFR SLP185
Loading
Personal Weather Stations






























Interactive Weather Map
Tropical Storm Tracking
New forecast layout! Learn more

10-Day Weather Forecast

Advertisements
Track Severe Weather on mobile